Lake Isabella, CA

3:46 PM PDT on September 21, 2014 (GMT -0700)
Meadows | Change Station
CLOSE
Current Station
Airport
Location: Bakersfield,
Elevation: 492 ft
Nearby Weather Stations

Elev 492 ft 35.43 °N, 119.05 °W | Updated 52 minutes ago

Clear
Clear
90 °F
Feels Like 90 °F
N
15
Wind Variable Wind from NW
Gusts 24 mph

Today
High -- | Low -- °F
--% Chance of Precip.
Yesterday
High -- | Low -- °F
Precip. -- in
6:40 AM 6:51 PM
Waning Crescent, 5% visible
Pressure 29.87 in
Visibility 10.0 miles
Clouds Clear
Dew Point 51 °F
Humidity 26%
Rainfall 0.00 in
Snow Depth 0 in , 0 in , 0 in
UV 6 out of 12
Pollen 7.10 out of 12
PM2.5 Moderate
Flu Activity Not available.
METAR KBFL 212154Z 31013G21KT 10SM CLR 32/11 A2989 RMK AO2 SLP113 T03220106

More Conditions Fewer Conditions

Pressure 29.87 in
Visibility 10.0 miles
Clouds Clear
Dew Point 51 °F
Humidity 26%
Rainfall 0.00 in
Snow Depth 0 in , 0 in , 0 in
UV 6 out of 12
Pollen 7.10 out of 12
PM2.5 Moderate
Flu Activity Not available.
METAR KBFL 212154Z 31013G21KT 10SM CLR 32/11 A2989 RMK AO2 SLP113 T03220106

More Conditions Fewer Conditions

10-Day Weather Forecast

Almanac

Astronomy

Sep. 21, 2014 Rise Set
Actual Time 6:40 AM PDT 6:51 PM PDT
Civil Twilight 6:15 AM PDT 7:17 PM PDT
Nautical Twilight 5:45 AM PDT 7:47 PM PDT
Astronomical Twilight 5:15 AM PDT 8:17 PM PDT
Moon 4:22 AM PDT 5:27 PM PDT
Length of Visible Light 13h 01m
Length of Day
12h 10m
Tomorrow will be 2m 14s shorter.
Waning Crescent, 5% of the Moon is Illuminated
Today
Waning Crescent
Sep 24
New
Oct 1
First Quarter
Oct 8
Full
Oct 15
Last Quarter

Today's Extremes

State Highs State Lows

Community

WunderPhotos

Upload Photos

1,755,280 photos uploaded!

Nearby

Air Quality

  Air Quality AQ Index Pollutant
Yesterday Moderate
OZONE
Yesterday Moderate
PM2.5
Current Moderate
PM2.5
Sunday Moderate
OZONE
Monday Moderate
OZONE
Tuesday Moderate
OZONE
Wednesday Moderate
OZONE
Thursday Moderate
OZONE

Snow Depth

Station Depth Elevation
Echo Peak 0 in 7800 ft
Tahoe City Cross 0 in 6750 ft
Spratt Creek 0 in 6200 ft
Leavitt Meadows 0 in 7200 ft
Burnside Lake 1 in 8139 ft

Earthquake Activity

City Distance Mag. Time & Date
Inyokern, California 43 miles 3.1 5:33 PM PDT
2014-09-19
Corcoran, California 75 miles 2.9 3:59 PM PDT
2014-09-18
Minimum magnitude displayed is 2.5.

Coastal Water Temperatures

Place Temperature
No Stations Reporting

Nearby Weather Stations